sensor_id;sensor_type;location;lat;lon;timestamp;temperature;humidity
28767;DHT22;15921;52.034;20.650;2023-03-30T00:00:36;4.60;72.20
28767;DHT22;15921;52.034;20.650;2023-03-30T00:03:03;4.50;72.60
28767;DHT22;15921;52.034;20.650;2023-03-30T00:05:29;4.50;72.70
28767;DHT22;15921;52.034;20.650;2023-03-30T00:07:55;4.50;73.00
28767;DHT22;15921;52.034;20.650;2023-03-30T00:10:21;4.50;73.10
28767;DHT22;15921;52.034;20.650;2023-03-30T00:12:48;4.50;73.10
28767;DHT22;15921;52.034;20.650;2023-03-30T00:15:19;4.50;73.20
28767;DHT22;15921;52.034;20.650;2023-03-30T00:17:46;4.60;73.30
28767;DHT22;15921;52.034;20.650;2023-03-30T00:20:12;4.60;73.50
28767;DHT22;15921;52.034;20.650;2023-03-30T00:22:40;4.60;73.50
28767;DHT22;15921;52.034;20.650;2023-03-30T00:25:08;4.60;73.70
28767;DHT22;15921;52.034;20.650;2023-03-30T00:27:35;4.70;73.80
28767;DHT22;15921;52.034;20.650;2023-03-30T00:30:03;4.70;73.80
28767;DHT22;15921;52.034;20.650;2023-03-30T00:32:29;4.70;74.00
28767;DHT22;15921;52.034;20.650;2023-03-30T00:34:55;4.70;74.00
28767;DHT22;15921;52.034;20.650;2023-03-30T00:37:21;4.70;74.10
28767;DHT22;15921;52.034;20.650;2023-03-30T00:39:47;4.70;74.20
28767;DHT22;15921;52.034;20.650;2023-03-30T00:42:16;4.70;74.20
28767;DHT22;15921;52.034;20.650;2023-03-30T00:45:09;4.70;74.30
28767;DHT22;15921;52.034;20.650;2023-03-30T00:47:39;4.80;74.50
28767;DHT22;15921;52.034;20.650;2023-03-30T00:50:06;4.80;74.50
28767;DHT22;15921;52.034;20.650;2023-03-30T00:52:32;4.80;74.50
28767;DHT22;15921;52.034;20.650;2023-03-30T00:55:06;4.80;74.50
28767;DHT22;15921;52.034;20.650;2023-03-30T00:57:35;4.90;74.60
28767;DHT22;15921;52.034;20.650;2023-03-30T01:00:03;4.90;74.60
28767;DHT22;15921;52.034;20.650;2023-03-30T01:02:34;4.90;74.80
28767;DHT22;15921;52.034;20.650;2023-03-30T01:05:03;4.90;74.60
28767;DHT22;15921;52.034;20.650;2023-03-30T01:07:29;4.80;74.70
28767;DHT22;15921;52.034;20.650;2023-03-30T01:09:56;4.90;74.90
28767;DHT22;15921;52.034;20.650;2023-03-30T01:12:22;4.90;75.20
28767;DHT22;15921;52.034;20.650;2023-03-30T01:14:48;4.90;75.20
28767;DHT22;15921;52.034;20.650;2023-03-30T01:17:38;4.90;75.20
28767;DHT22;15921;52.034;20.650;2023-03-30T01:45:29;4.90;76.60
28767;DHT22;15921;52.034;20.650;2023-03-30T01:50:51;4.90;76.70
28767;DHT22;15921;52.034;20.650;2023-03-30T01:53:39;4.90;76.80
28767;DHT22;15921;52.034;20.650;2023-03-30T01:58:48;4.90;77.00
28767;DHT22;15921;52.034;20.650;2023-03-30T02:01:16;5.00;77.20
28767;DHT22;15921;52.034;20.650;2023-03-30T02:03:48;4.90;77.20
28767;DHT22;15921;52.034;20.650;2023-03-30T02:06:30;4.90;77.20
28767;DHT22;15921;52.034;20.650;2023-03-30T02:09:14;4.90;77.50
28767;DHT22;15921;52.034;20.650;2023-03-30T02:11:44;4.90;77.50
28767;DHT22;15921;52.034;20.650;2023-03-30T02:14:12;4.90;77.80
28767;DHT22;15921;52.034;20.650;2023-03-30T02:16:45;4.90;78.00
28767;DHT22;15921;52.034;20.650;2023-03-30T02:19:11;4.90;78.30
28767;DHT22;15921;52.034;20.650;2023-03-30T02:21:37;4.90;78.40
28767;DHT22;15921;52.034;20.650;2023-03-30T02:24:06;4.90;78.60
28767;DHT22;15921;52.034;20.650;2023-03-30T02:26:32;4.90;78.70
28767;DHT22;15921;52.034;20.650;2023-03-30T02:29:01;4.90;78.70
28767;DHT22;15921;52.034;20.650;2023-03-30T02:31:27;4.90;78.80
28767;DHT22;15921;52.034;20.650;2023-03-30T02:39:15;4.90;79.00
28767;DHT22;15921;52.034;20.650;2023-03-30T02:44:28;5.00;79.30
28767;DHT22;15921;52.034;20.650;2023-03-30T02:49:49;5.10;79.40
28767;DHT22;15921;52.034;20.650;2023-03-30T02:52:38;5.10;79.30
28767;DHT22;15921;52.034;20.650;2023-03-30T02:55:08;5.10;79.30
28767;DHT22;15921;52.034;20.650;2023-03-30T02:57:42;5.10;79.30
28767;DHT22;15921;52.034;20.650;2023-03-30T03:00:25;5.10;79.40
28767;DHT22;15921;52.034;20.650;2023-03-30T03:02:55;5.10;79.50
28767;DHT22;15921;52.034;20.650;2023-03-30T03:05:23;5.10;79.50
28767;DHT22;15921;52.034;20.650;2023-03-30T03:07:50;5.10;79.70
28767;DHT22;15921;52.034;20.650;2023-03-30T03:10:17;5.10;79.70
28767;DHT22;15921;52.034;20.650;2023-03-30T03:12:43;5.10;79.90
28767;DHT22;15921;52.034;20.650;2023-03-30T03:15:09;5.10;80.10
28767;DHT22;15921;52.034;20.650;2023-03-30T03:17:36;5.10;80.20
28767;DHT22;15921;52.034;20.650;2023-03-30T03:20:04;5.10;80.50
28767;DHT22;15921;52.034;20.650;2023-03-30T03:22:30;5.10;80.60
28767;DHT22;15921;52.034;20.650;2023-03-30T03:24:56;5.10;80.70
28767;DHT22;15921;52.034;20.650;2023-03-30T03:27:22;5.10;80.90
28767;DHT22;15921;52.034;20.650;2023-03-30T03:29:48;5.10;81.20
28767;DHT22;15921;52.034;20.650;2023-03-30T03:32:14;5.10;81.20
28767;DHT22;15921;52.034;20.650;2023-03-30T03:34:41;5.10;81.30
28767;DHT22;15921;52.034;20.650;2023-03-30T03:37:09;5.10;81.40
28767;DHT22;15921;52.034;20.650;2023-03-30T03:39:36;5.10;81.50
28767;DHT22;15921;52.034;20.650;2023-03-30T03:42:05;5.10;81.60
28767;DHT22;15921;52.034;20.650;2023-03-30T03:44:31;5.20;81.60
28767;DHT22;15921;52.034;20.650;2023-03-30T03:46:57;5.10;81.70
28767;DHT22;15921;52.034;20.650;2023-03-30T03:49:23;5.10;81.80
28767;DHT22;15921;52.034;20.650;2023-03-30T03:51:48;5.20;82.10
28767;DHT22;15921;52.034;20.650;2023-03-30T03:54:14;5.20;82.20
28767;DHT22;15921;52.034;20.650;2023-03-30T03:56:40;5.20;82.20
28767;DHT22;15921;52.034;20.650;2023-03-30T03:59:06;5.20;82.40
28767;DHT22;15921;52.034;20.650;2023-03-30T04:01:32;5.20;82.30
28767;DHT22;15921;52.034;20.650;2023-03-30T04:03:58;5.20;82.40
28767;DHT22;15921;52.034;20.650;2023-03-30T04:06:24;5.20;82.70
28767;DHT22;15921;52.034;20.650;2023-03-30T04:08:49;5.20;83.10
28767;DHT22;15921;52.034;20.650;2023-03-30T04:11:15;5.20;83.50
28767;DHT22;15921;52.034;20.650;2023-03-30T04:13:42;5.20;83.40
28767;DHT22;15921;52.034;20.650;2023-03-30T04:16:08;5.20;83.40
28767;DHT22;15921;52.034;20.650;2023-03-30T04:18:34;5.30;83.40
28767;DHT22;15921;52.034;20.650;2023-03-30T04:21:03;5.30;83.70
28767;DHT22;15921;52.034;20.650;2023-03-30T04:23:31;5.30;83.70
28767;DHT22;15921;52.034;20.650;2023-03-30T04:26:05;5.40;83.80
28767;DHT22;15921;52.034;20.650;2023-03-30T04:28:33;5.40;83.90
28767;DHT22;15921;52.034;20.650;2023-03-30T04:31:01;5.40;84.00
28767;DHT22;15921;52.034;20.650;2023-03-30T04:33:28;5.40;84.20
28767;DHT22;15921;52.034;20.650;2023-03-30T04:35:53;5.40;84.30
28767;DHT22;15921;52.034;20.650;2023-03-30T04:38:19;5.50;84.40
28767;DHT22;15921;52.034;20.650;2023-03-30T04:40:51;5.50;84.50
28767;DHT22;15921;52.034;20.650;2023-03-30T04:43:18;5.50;84.30
28767;DHT22;15921;52.034;20.650;2023-03-30T04:45:52;5.60;84.50
28767;DHT22;15921;52.034;20.650;2023-03-30T04:48:19;5.60;84.60
28767;DHT22;15921;52.034;20.650;2023-03-30T04:50:46;5.60;84.70
28767;DHT22;15921;52.034;20.650;2023-03-30T04:53:12;5.70;84.90
28767;DHT22;15921;52.034;20.650;2023-03-30T04:55:44;5.70;84.90
28767;DHT22;15921;52.034;20.650;2023-03-30T04:58:11;5.60;85.20
28767;DHT22;15921;52.034;20.650;2023-03-30T05:00:37;5.70;85.30
28767;DHT22;15921;52.034;20.650;2023-03-30T05:03:03;5.70;85.40
28767;DHT22;15921;52.034;20.650;2023-03-30T05:05:29;5.80;85.40
28767;DHT22;15921;52.034;20.650;2023-03-30T05:07:55;5.80;85.20
28767;DHT22;15921;52.034;20.650;2023-03-30T05:10:21;5.90;85.30
28767;DHT22;15921;52.034;20.650;2023-03-30T05:12:47;6.00;85.10
28767;DHT22;15921;52.034;20.650;2023-03-30T05:15:13;6.10;85.00
28767;DHT22;15921;52.034;20.650;2023-03-30T05:17:39;6.10;84.90
28767;DHT22;15921;52.034;20.650;2023-03-30T05:20:06;6.10;84.90
28767;DHT22;15921;52.034;20.650;2023-03-30T05:22:35;6.10;84.90
28767;DHT22;15921;52.034;20.650;2023-03-30T05:25:02;6.20;85.00
28767;DHT22;15921;52.034;20.650;2023-03-30T05:27:28;6.20;84.90
28767;DHT22;15921;52.034;20.650;2023-03-30T05:29:53;6.30;85.00
28767;DHT22;15921;52.034;20.650;2023-03-30T05:32:20;6.30;84.80
28767;DHT22;15921;52.034;20.650;2023-03-30T05:34:46;6.40;84.90
28767;DHT22;15921;52.034;20.650;2023-03-30T05:37:12;6.50;84.80
28767;DHT22;15921;52.034;20.650;2023-03-30T05:39:38;6.50;84.60
28767;DHT22;15921;52.034;20.650;2023-03-30T05:42:04;6.60;84.50
28767;DHT22;15921;52.034;20.650;2023-03-30T05:44:30;6.60;84.50
28767;DHT22;15921;52.034;20.650;2023-03-30T05:46:56;6.60;84.40
28767;DHT22;15921;52.034;20.650;2023-03-30T05:49:22;6.70;84.50
28767;DHT22;15921;52.034;20.650;2023-03-30T05:51:47;6.70;84.40
28767;DHT22;15921;52.034;20.650;2023-03-30T05:54:13;6.80;84.30
28767;DHT22;15921;52.034;20.650;2023-03-30T05:56:39;6.80;84.50
28767;DHT22;15921;52.034;20.650;2023-03-30T05:59:07;6.90;84.30
28767;DHT22;15921;52.034;20.650;2023-03-30T06:01:33;6.90;84.20
28767;DHT22;15921;52.034;20.650;2023-03-30T06:03:59;7.00;84.60
28767;DHT22;15921;52.034;20.650;2023-03-30T06:06:25;7.10;84.30
28767;DHT22;15921;52.034;20.650;2023-03-30T06:08:51;7.10;84.00
28767;DHT22;15921;52.034;20.650;2023-03-30T06:11:18;7.10;84.00
28767;DHT22;15921;52.034;20.650;2023-03-30T06:13:44;7.20;84.10
28767;DHT22;15921;52.034;20.650;2023-03-30T06:16:09;7.30;84.10
28767;DHT22;15921;52.034;20.650;2023-03-30T06:18:35;7.40;83.90
28767;DHT22;15921;52.034;20.650;2023-03-30T06:21:01;7.40;83.70
28767;DHT22;15921;52.034;20.650;2023-03-30T06:23:34;7.40;83.70
28767;DHT22;15921;52.034;20.650;2023-03-30T06:26:00;7.50;83.70
28767;DHT22;15921;52.034;20.650;2023-03-30T06:28:26;7.50;83.70
28767;DHT22;15921;52.034;20.650;2023-03-30T06:30:52;7.60;83.50
28767;DHT22;15921;52.034;20.650;2023-03-30T06:33:18;7.60;83.30
28767;DHT22;15921;52.034;20.650;2023-03-30T06:35:49;7.70;83.20
28767;DHT22;15921;52.034;20.650;2023-03-30T06:38:15;7.60;83.00
28767;DHT22;15921;52.034;20.650;2023-03-30T06:40:41;7.70;83.00
28767;DHT22;15921;52.034;20.650;2023-03-30T06:43:14;7.70;82.80
28767;DHT22;15921;52.034;20.650;2023-03-30T06:45:40;7.80;82.80
28767;DHT22;15921;52.034;20.650;2023-03-30T06:48:06;7.90;82.40
28767;DHT22;15921;52.034;20.650;2023-03-30T06:50:33;8.00;82.10
28767;DHT22;15921;52.034;20.650;2023-03-30T06:52:58;8.00;82.20
28767;DHT22;15921;52.034;20.650;2023-03-30T06:55:24;8.00;81.90
28767;DHT22;15921;52.034;20.650;2023-03-30T06:57:50;8.00;82.10
28767;DHT22;15921;52.034;20.650;2023-03-30T07:00:16;8.10;82.60
28767;DHT22;15921;52.034;20.650;2023-03-30T07:02:42;8.10;82.90
28767;DHT22;15921;52.034;20.650;2023-03-30T07:05:09;8.20;82.80
28767;DHT22;15921;52.034;20.650;2023-03-30T07:07:35;8.20;82.70
28767;DHT22;15921;52.034;20.650;2023-03-30T07:10:02;8.30;82.50
28767;DHT22;15921;52.034;20.650;2023-03-30T07:12:38;8.40;82.40
28767;DHT22;15921;52.034;20.650;2023-03-30T07:15:05;8.50;82.40
28767;DHT22;15921;52.034;20.650;2023-03-30T07:17:33;8.60;82.00
28767;DHT22;15921;52.034;20.650;2023-03-30T07:19:59;8.80;81.70
28767;DHT22;15921;52.034;20.650;2023-03-30T07:22:26;9.00;81.50
28767;DHT22;15921;52.034;20.650;2023-03-30T07:24:52;9.30;80.50
28767;DHT22;15921;52.034;20.650;2023-03-30T07:27:18;9.50;80.90
28767;DHT22;15921;52.034;20.650;2023-03-30T07:29:43;9.70;79.70
28767;DHT22;15921;52.034;20.650;2023-03-30T07:32:09;9.90;79.10
28767;DHT22;15921;52.034;20.650;2023-03-30T07:34:35;10.10;78.70
28767;DHT22;15921;52.034;20.650;2023-03-30T07:37:00;10.30;78.20
28767;DHT22;15921;52.034;20.650;2023-03-30T07:39:26;10.30;78.00
28767;DHT22;15921;52.034;20.650;2023-03-30T07:41:52;10.30;78.10
28767;DHT22;15921;52.034;20.650;2023-03-30T07:44:18;10.30;78.20
28767;DHT22;15921;52.034;20.650;2023-03-30T07:46:44;10.40;78.20
28767;DHT22;15921;52.034;20.650;2023-03-30T07:49:10;10.20;78.60
28767;DHT22;15921;52.034;20.650;2023-03-30T07:51:36;10.20;78.80
28767;DHT22;15921;52.034;20.650;2023-03-30T07:54:02;10.00;79.40
28767;DHT22;15921;52.034;20.650;2023-03-30T07:56:28;10.10;79.60
28767;DHT22;15921;52.034;20.650;2023-03-30T07:58:53;10.00;79.40
28767;DHT22;15921;52.034;20.650;2023-03-30T08:01:19;10.00;80.00
28767;DHT22;15921;52.034;20.650;2023-03-30T08:03:45;10.00;80.10
28767;DHT22;15921;52.034;20.650;2023-03-30T08:06:12;10.00;80.20
28767;DHT22;15921;52.034;20.650;2023-03-30T08:08:38;9.90;80.20
28767;DHT22;15921;52.034;20.650;2023-03-30T08:11:06;10.00;80.40
28767;DHT22;15921;52.034;20.650;2023-03-30T08:13:32;10.10;80.30
28767;DHT22;15921;52.034;20.650;2023-03-30T08:15:58;10.10;80.30
28767;DHT22;15921;52.034;20.650;2023-03-30T08:18:24;10.10;80.30
28767;DHT22;15921;52.034;20.650;2023-03-30T08:20:52;9.90;80.50
28767;DHT22;15921;52.034;20.650;2023-03-30T08:23:19;9.80;81.00
28767;DHT22;15921;52.034;20.650;2023-03-30T08:25:44;9.70;81.50
28767;DHT22;15921;52.034;20.650;2023-03-30T08:28:12;9.70;82.50
28767;DHT22;15921;52.034;20.650;2023-03-30T08:30:38;9.70;82.80
28767;DHT22;15921;52.034;20.650;2023-03-30T08:33:03;9.70;83.00
28767;DHT22;15921;52.034;20.650;2023-03-30T08:35:29;9.80;82.90
28767;DHT22;15921;52.034;20.650;2023-03-30T08:37:55;9.90;82.70
28767;DHT22;15921;52.034;20.650;2023-03-30T08:40:21;10.00;82.20
28767;DHT22;15921;52.034;20.650;2023-03-30T08:45:13;10.20;81.90
28767;DHT22;15921;52.034;20.650;2023-03-30T08:47:43;10.40;81.80
28767;DHT22;15921;52.034;20.650;2023-03-30T08:50:30;10.70;81.10
28767;DHT22;15921;52.034;20.650;2023-03-30T08:52:56;11.10;80.40
28767;DHT22;15921;52.034;20.650;2023-03-30T08:58:37;11.60;78.90
28767;DHT22;15921;52.034;20.650;2023-03-30T09:01:22;11.80;77.90
28767;DHT22;15921;52.034;20.650;2023-03-30T09:09:10;12.20;76.10
28767;DHT22;15921;52.034;20.650;2023-03-30T09:11:37;12.30;75.60
28767;DHT22;15921;52.034;20.650;2023-03-30T09:14:05;12.40;75.40
28767;DHT22;15921;52.034;20.650;2023-03-30T09:16:45;12.40;75.10
28767;DHT22;15921;52.034;20.650;2023-03-30T09:19:20;12.40;75.10
28767;DHT22;15921;52.034;20.650;2023-03-30T09:21:49;12.50;75.30
28767;DHT22;15921;52.034;20.650;2023-03-30T09:24:24;12.70;75.20
28767;DHT22;15921;52.034;20.650;2023-03-30T09:27:27;12.90;74.40
28767;DHT22;15921;52.034;20.650;2023-03-30T09:30:12;13.10;74.00
28767;DHT22;15921;52.034;20.650;2023-03-30T09:32:44;13.20;73.80
28767;DHT22;15921;52.034;20.650;2023-03-30T09:35:18;13.40;73.70
28767;DHT22;15921;52.034;20.650;2023-03-30T09:37:49;13.60;73.10
28767;DHT22;15921;52.034;20.650;2023-03-30T09:45:32;14.00;72.50
28767;DHT22;15921;52.034;20.650;2023-03-30T09:48:07;14.20;71.60
28767;DHT22;15921;52.034;20.650;2023-03-30T09:50:42;14.30;71.30
28767;DHT22;15921;52.034;20.650;2023-03-30T09:53:25;14.30;71.10
28767;DHT22;15921;52.034;20.650;2023-03-30T09:56:06;14.50;71.10
28767;DHT22;15921;52.034;20.650;2023-03-30T09:58:34;14.60;70.40
28767;DHT22;15921;52.034;20.650;2023-03-30T10:03:42;14.80;69.80
28767;DHT22;15921;52.034;20.650;2023-03-30T10:06:09;14.90;69.90
28767;DHT22;15921;52.034;20.650;2023-03-30T10:08:55;15.10;69.40
28767;DHT22;15921;52.034;20.650;2023-03-30T10:11:40;15.20;69.40
28767;DHT22;15921;52.034;20.650;2023-03-30T10:16:45;15.00;69.40
28767;DHT22;15921;52.034;20.650;2023-03-30T10:19:20;15.20;69.40
28767;DHT22;15921;52.034;20.650;2023-03-30T10:21:47;15.40;68.20
28767;DHT22;15921;52.034;20.650;2023-03-30T10:24:21;15.50;68.20
28767;DHT22;15921;52.034;20.650;2023-03-30T10:26:55;15.70;67.70
28767;DHT22;15921;52.034;20.650;2023-03-30T10:29:23;16.00;67.40
28767;DHT22;15921;52.034;20.650;2023-03-30T10:31:57;16.40;66.50
28767;DHT22;15921;52.034;20.650;2023-03-30T10:34:46;16.60;66.00
28767;DHT22;15921;52.034;20.650;2023-03-30T10:37:16;16.90;64.90
28767;DHT22;15921;52.034;20.650;2023-03-30T10:39:45;16.80;64.40
28767;DHT22;15921;52.034;20.650;2023-03-30T10:42:18;16.90;65.00
28767;DHT22;15921;52.034;20.650;2023-03-30T10:44:46;16.90;64.40
28767;DHT22;15921;52.034;20.650;2023-03-30T10:55:09;17.50;63.10
28767;DHT22;15921;52.034;20.650;2023-03-30T11:03:27;18.00;62.40
28767;DHT22;15921;52.034;20.650;2023-03-30T11:06:00;18.10;62.20
28767;DHT22;15921;52.034;20.650;2023-03-30T11:08:47;18.20;61.20
28767;DHT22;15921;52.034;20.650;2023-03-30T11:11:20;18.30;61.30
28767;DHT22;15921;52.034;20.650;2023-03-30T11:14:02;18.60;61.20
28767;DHT22;15921;52.034;20.650;2023-03-30T11:16:43;19.00;60.80
28767;DHT22;15921;52.034;20.650;2023-03-30T11:19:37;19.10;59.80
28767;DHT22;15921;52.034;20.650;2023-03-30T11:22:17;18.90;59.50
28767;DHT22;15921;52.034;20.650;2023-03-30T11:24:50;18.50;60.50
28767;DHT22;15921;52.034;20.650;2023-03-30T11:27:29;18.50;60.90
28767;DHT22;15921;52.034;20.650;2023-03-30T11:37:58;18.90;60.70
28767;DHT22;15921;52.034;20.650;2023-03-30T11:43:20;19.50;59.80
28767;DHT22;15921;52.034;20.650;2023-03-30T11:53:50;19.80;58.70
28767;DHT22;15921;52.034;20.650;2023-03-30T11:56:36;19.40;58.90
28767;DHT22;15921;52.034;20.650;2023-03-30T11:59:08;19.10;59.60
28767;DHT22;15921;52.034;20.650;2023-03-30T12:04:18;18.50;60.90
28767;DHT22;15921;52.034;20.650;2023-03-30T12:06:59;18.30;61.90
28767;DHT22;15921;52.034;20.650;2023-03-30T12:09:33;18.10;62.20
28767;DHT22;15921;52.034;20.650;2023-03-30T12:12:16;17.70;63.20
28767;DHT22;15921;52.034;20.650;2023-03-30T12:30:27;15.60;68.70
28767;DHT22;15921;52.034;20.650;2023-03-30T12:33:02;15.60;69.50
28767;DHT22;15921;52.034;20.650;2023-03-30T12:38:16;15.20;70.60
28767;DHT22;15921;52.034;20.650;2023-03-30T12:40:45;15.20;71.20
28767;DHT22;15921;52.034;20.650;2023-03-30T12:43:27;15.20;71.40
28767;DHT22;15921;52.034;20.650;2023-03-30T12:46:16;15.00;71.80
28767;DHT22;15921;52.034;20.650;2023-03-30T12:52:13;14.80;73.10
28767;DHT22;15921;52.034;20.650;2023-03-30T12:57:27;14.70;73.70
28767;DHT22;15921;52.034;20.650;2023-03-30T13:03:10;14.60;74.30
28767;DHT22;15921;52.034;20.650;2023-03-30T13:05:42;14.60;74.50
28767;DHT22;15921;52.034;20.650;2023-03-30T13:08:31;14.60;74.50
28767;DHT22;15921;52.034;20.650;2023-03-30T13:14:03;14.70;74.80
28767;DHT22;15921;52.034;20.650;2023-03-30T13:19:28;15.10;73.70
28767;DHT22;15921;52.034;20.650;2023-03-30T13:25:02;15.20;73.00
28767;DHT22;15921;52.034;20.650;2023-03-30T13:27:49;15.10;73.20
28767;DHT22;15921;52.034;20.650;2023-03-30T13:30:16;15.00;73.80
28767;DHT22;15921;52.034;20.650;2023-03-30T13:33:27;14.90;74.10
28767;DHT22;15921;52.034;20.650;2023-03-30T13:40:46;14.50;74.50
28767;DHT22;15921;52.034;20.650;2023-03-30T13:43:38;14.30;74.80
28767;DHT22;15921;52.034;20.650;2023-03-30T13:51:19;14.20;75.00
28767;DHT22;15921;52.034;20.650;2023-03-30T13:53:54;14.20;74.80
28767;DHT22;15921;52.034;20.650;2023-03-30T13:56:23;14.30;74.70
28767;DHT22;15921;52.034;20.650;2023-03-30T13:59:06;14.40;74.30
28767;DHT22;15921;52.034;20.650;2023-03-30T14:01:34;14.60;73.90
28767;DHT22;15921;52.034;20.650;2023-03-30T14:04:01;14.80;73.50
28767;DHT22;15921;52.034;20.650;2023-03-30T14:06:30;14.80;73.50
28767;DHT22;15921;52.034;20.650;2023-03-30T14:09:10;14.80;73.50
28767;DHT22;15921;52.034;20.650;2023-03-30T14:11:37;14.90;73.30
28767;DHT22;15921;52.034;20.650;2023-03-30T14:14:04;14.70;74.00
28767;DHT22;15921;52.034;20.650;2023-03-30T14:16:36;14.60;73.50
28767;DHT22;15921;52.034;20.650;2023-03-30T14:19:19;14.40;73.80
28767;DHT22;15921;52.034;20.650;2023-03-30T14:21:46;14.20;74.30
28767;DHT22;15921;52.034;20.650;2023-03-30T14:24:18;14.10;75.00
28767;DHT22;15921;52.034;20.650;2023-03-30T14:26:47;14.10;75.60
28767;DHT22;15921;52.034;20.650;2023-03-30T14:29:18;14.00;76.20
28767;DHT22;15921;52.034;20.650;2023-03-30T14:31:45;14.00;76.80
28767;DHT22;15921;52.034;20.650;2023-03-30T14:34:30;13.90;77.00
28767;DHT22;15921;52.034;20.650;2023-03-30T14:37:05;13.80;77.80
28767;DHT22;15921;52.034;20.650;2023-03-30T14:39:34;13.70;78.40
28767;DHT22;15921;52.034;20.650;2023-03-30T14:44:47;13.40;79.10
28767;DHT22;15921;52.034;20.650;2023-03-30T14:47:17;13.40;79.80
28767;DHT22;15921;52.034;20.650;2023-03-30T14:49:43;13.30;80.00
28767;DHT22;15921;52.034;20.650;2023-03-30T14:52:21;13.20;80.40
28767;DHT22;15921;52.034;20.650;2023-03-30T14:54:51;13.20;80.80
28767;DHT22;15921;52.034;20.650;2023-03-30T14:57:20;13.30;81.30
28767;DHT22;15921;52.034;20.650;2023-03-30T14:59:56;13.30;81.40
28767;DHT22;15921;52.034;20.650;2023-03-30T15:02:29;13.20;81.60
28767;DHT22;15921;52.034;20.650;2023-03-30T15:04:56;13.20;82.00
28767;DHT22;15921;52.034;20.650;2023-03-30T15:07:23;13.20;82.20
28767;DHT22;15921;52.034;20.650;2023-03-30T15:09:55;13.20;82.20
28767;DHT22;15921;52.034;20.650;2023-03-30T15:12:28;13.20;82.60
28767;DHT22;15921;52.034;20.650;2023-03-30T15:14:59;13.10;82.50
28767;DHT22;15921;52.034;20.650;2023-03-30T15:17:26;13.10;83.00
28767;DHT22;15921;52.034;20.650;2023-03-30T15:19:55;13.10;83.10
28767;DHT22;15921;52.034;20.650;2023-03-30T15:22:28;13.10;83.40
28767;DHT22;15921;52.034;20.650;2023-03-30T15:24:57;13.10;83.60
28767;DHT22;15921;52.034;20.650;2023-03-30T15:27:24;13.10;84.00
28767;DHT22;15921;52.034;20.650;2023-03-30T15:29:49;13.10;83.80
28767;DHT22;15921;52.034;20.650;2023-03-30T15:32:20;13.10;83.70
28767;DHT22;15921;52.034;20.650;2023-03-30T15:37:36;13.10;83.60
28767;DHT22;15921;52.034;20.650;2023-03-30T15:48:23;13.40;82.60
28767;DHT22;15921;52.034;20.650;2023-03-30T15:50:53;13.40;82.80
28767;DHT22;15921;52.034;20.650;2023-03-30T15:53:34;13.30;83.10
28767;DHT22;15921;52.034;20.650;2023-03-30T15:56:02;13.30;83.40
28767;DHT22;15921;52.034;20.650;2023-03-30T15:58:28;13.30;83.00
28767;DHT22;15921;52.034;20.650;2023-03-30T16:00:54;13.20;83.00
28767;DHT22;15921;52.034;20.650;2023-03-30T16:03:33;13.20;83.10
28767;DHT22;15921;52.034;20.650;2023-03-30T16:05:59;13.20;83.40
28767;DHT22;15921;52.034;20.650;2023-03-30T16:08:25;13.20;83.60
28767;DHT22;15921;52.034;20.650;2023-03-30T16:10:51;13.20;83.90
28767;DHT22;15921;52.034;20.650;2023-03-30T16:13:17;13.20;84.10
28767;DHT22;15921;52.034;20.650;2023-03-30T16:15:43;13.20;84.30
28767;DHT22;15921;52.034;20.650;2023-03-30T16:18:11;13.20;84.10
28767;DHT22;15921;52.034;20.650;2023-03-30T16:20:37;13.10;84.20
28767;DHT22;15921;52.034;20.650;2023-03-30T16:23:03;13.10;84.20
28767;DHT22;15921;52.034;20.650;2023-03-30T16:25:29;13.00;84.20
28767;DHT22;15921;52.034;20.650;2023-03-30T16:27:55;13.00;84.40
28767;DHT22;15921;52.034;20.650;2023-03-30T16:30:35;12.90;84.80
28767;DHT22;15921;52.034;20.650;2023-03-30T16:33:03;13.00;85.20
28767;DHT22;15921;52.034;20.650;2023-03-30T16:35:29;12.90;85.20
28767;DHT22;15921;52.034;20.650;2023-03-30T16:37:55;12.90;85.50
28767;DHT22;15921;52.034;20.650;2023-03-30T16:40:31;12.90;85.80
28767;DHT22;15921;52.034;20.650;2023-03-30T16:42:58;12.90;86.00
28767;DHT22;15921;52.034;20.650;2023-03-30T16:45:24;12.80;86.20
28767;DHT22;15921;52.034;20.650;2023-03-30T16:47:50;12.80;86.60
28767;DHT22;15921;52.034;20.650;2023-03-30T16:50:23;12.70;86.90
28767;DHT22;15921;52.034;20.650;2023-03-30T16:52:49;12.60;87.20
28767;DHT22;15921;52.034;20.650;2023-03-30T16:55:16;12.60;87.70
28767;DHT22;15921;52.034;20.650;2023-03-30T16:57:42;12.50;88.20
28767;DHT22;15921;52.034;20.650;2023-03-30T17:00:47;12.40;88.80
28767;DHT22;15921;52.034;20.650;2023-03-30T17:03:13;12.30;89.60
28767;DHT22;15921;52.034;20.650;2023-03-30T17:05:39;12.20;90.00
28767;DHT22;15921;52.034;20.650;2023-03-30T17:08:12;12.20;90.20
28767;DHT22;15921;52.034;20.650;2023-03-30T17:10:39;12.20;90.40
28767;DHT22;15921;52.034;20.650;2023-03-30T17:13:06;12.10;90.70
28767;DHT22;15921;52.034;20.650;2023-03-30T17:15:32;12.10;90.90
28767;DHT22;15921;52.034;20.650;2023-03-30T17:18:03;12.00;91.20
28767;DHT22;15921;52.034;20.650;2023-03-30T17:21:02;11.90;91.50
28767;DHT22;15921;52.034;20.650;2023-03-30T17:23:30;11.80;92.50
28767;DHT22;15921;52.034;20.650;2023-03-30T17:26:00;11.80;92.90
28767;DHT22;15921;52.034;20.650;2023-03-30T17:28:28;11.80;93.50
28767;DHT22;15921;52.034;20.650;2023-03-30T17:30:57;11.80;94.10
28767;DHT22;15921;52.034;20.650;2023-03-30T17:33:24;11.80;94.70
28767;DHT22;15921;52.034;20.650;2023-03-30T17:35:56;11.80;95.30
28767;DHT22;15921;52.034;20.650;2023-03-30T17:38:22;11.80;96.20
28767;DHT22;15921;52.034;20.650;2023-03-30T17:40:48;11.80;96.60
28767;DHT22;15921;52.034;20.650;2023-03-30T17:43:15;11.90;97.20
28767;DHT22;15921;52.034;20.650;2023-03-30T17:45:41;11.90;97.90
28767;DHT22;15921;52.034;20.650;2023-03-30T17:48:13;11.90;98.80
28767;DHT22;15921;52.034;20.650;2023-03-30T17:50:40;12.00;99.50
28767;DHT22;15921;52.034;20.650;2023-03-30T17:53:11;12.00;99.90
28767;DHT22;15921;52.034;20.650;2023-03-30T17:55:42;12.10;99.90
28767;DHT22;15921;52.034;20.650;2023-03-30T17:58:26;12.10;99.90
28767;DHT22;15921;52.034;20.650;2023-03-30T18:01:05;12.10;99.90
28767;DHT22;15921;52.034;20.650;2023-03-30T18:03:32;12.10;99.90
28767;DHT22;15921;52.034;20.650;2023-03-30T18:05:59;12.20;99.90
28767;DHT22;15921;52.034;20.650;2023-03-30T18:08:26;12.20;99.90
28767;DHT22;15921;52.034;20.650;2023-03-30T18:10:56;12.20;99.90
28767;DHT22;15921;52.034;20.650;2023-03-30T18:13:24;12.10;99.90
28767;DHT22;15921;52.034;20.650;2023-03-30T18:15:52;12.20;99.90
28767;DHT22;15921;52.034;20.650;2023-03-30T18:18:21;12.20;99.90